Map

Track Data

SID SEASON NUMBER BASIN SUBBASIN NAME ISO_TIME NATURE LAT LON WMO_WIND WMO_PRES WMO_AGENCY TRACK_TYPE DIST2LAND LANDFALL IFLAG USA_AGENCY USA_ATCF_ID USA_LAT USA_LON USA_RECORD USA_STATUS USA_WIND USA_PRES USA_SSHS USA_R34_NE USA_R34_SE USA_R34_SW USA_R34_NW USA_R50_NE USA_R50_SE USA_R50_SW USA_R50_NW USA_R64_NE USA_R64_SE USA_R64_SW USA_R64_NW USA_POCI USA_ROCI USA_RMW USA_EYE TOKYO_LAT TOKYO_LON TOKYO_GRADE TOKYO_WIND TOKYO_PRES TOKYO_R50_DIR TOKYO_R50_LONG TOKYO_R50_SHORT TOKYO_R30_DIR TOKYO_R30_LONG TOKYO_R30_SHORT TOKYO_LAND CMA_LAT CMA_LON CMA_CAT CMA_WIND CMA_PRES HKO_LAT HKO_LON HKO_CAT HKO_WIND HKO_PRES NEWDELHI_LAT NEWDELHI_LON NEWDELHI_GRADE NEWDELHI_WIND NEWDELHI_PRES NEWDELHI_CI NEWDELHI_DP NEWDELHI_POCI REUNION_LAT REUNION_LON REUNION_TYPE REUNION_WIND REUNION_PRES REUNION_TNUM REUNION_CI REUNION_RMW REUNION_R34_NE REUNION_R34_SE REUNION_R34_SW REUNION_R34_NW REUNION_R50_NE REUNION_R50_SE REUNION_R50_SW REUNION_R50_NW REUNION_R64_NE REUNION_R64_SE REUNION_R64_SW REUNION_R64_NW BOM_LAT BOM_LON BOM_TYPE BOM_WIND BOM_PRES BOM_TNUM BOM_CI BOM_RMW BOM_R34_NE BOM_R34_SE BOM_R34_SW BOM_R34_NW BOM_R50_NE BOM_R50_SE BOM_R50_SW BOM_R50_NW BOM_R64_NE BOM_R64_SE BOM_R64_SW BOM_R64_NW BOM_ROCI BOM_POCI BOM_EYE BOM_POS_METHOD BOM_PRES_METHOD NADI_LAT NADI_LON NADI_CAT NADI_WIND NADI_PRES WELLINGTON_LAT WELLINGTON_LON WELLINGTON_WIND WELLINGTON_PRES DS824_LAT DS824_LON DS824_STAGE DS824_WIND DS824_PRES TD9636_LAT TD9636_LON TD9636_STAGE TD9636_WIND TD9636_PRES TD9635_LAT TD9635_LON TD9635_WIND TD9635_PRES TD9635_ROCI NEUMANN_LAT NEUMANN_LON NEUMANN_CLASS NEUMANN_WIND NEUMANN_PRES MLC_LAT MLC_LON MLC_CLASS MLC_WIND MLC_PRES USA_GUST BOM_GUST BOM_GUST_PER REUNION_GUST REUNION_GUST_PER USA_SEAHGT USA_SEARAD_NE USA_SEARAD_SE USA_SEARAD_SW USA_SEARAD_NW STORM_SPEED STORM_DIR
1974202N10263 1974 64 EP MM NOT_NAMED 1974-07-21 00:00:00 NR 10.0000 -97.0000 main 628 628 O_____________ jtwc_ep EP101974 10.0000 -97.0000 30 -1 6 276
1974202N10263 1974 64 EP MM NOT_NAMED 1974-07-21 03:00:00 NR 10.0326 -97.3025 main 631 621 P_____________ EP101974 10.0326 -97.3025 30 -1 6 280
1974202N10263 1974 64 EP MM NOT_NAMED 1974-07-21 06:00:00 NR 10.1000 -97.6000 main 625 616 O_____________ jtwc_ep EP101974 10.1000 -97.6000 30 -1 6 289
1974202N10263 1974 64 EP MM NOT_NAMED 1974-07-21 09:00:00 NR 10.2275 -97.8925 main 620 604 P_____________ EP101974 10.2275 -97.8925 30 -1 7 297
1974202N10263 1974 64 EP MM NOT_NAMED 1974-07-21 12:00:00 NR 10.4000 -98.2000 main 607 596 O_________O___ jtwc_ep EP101974 10.4000 -98.2000 30 -1 10.4000 -98.2000 1 30 7 300
1974202N10263 1974 64 EP MM NOT_NAMED 1974-07-21 15:00:00 NR 10.5947 -98.5332 main 596 587 P_________P___ EP101974 10.5850 -98.5351 30 -1 10.6142 -98.5296 1 30 8 301
1974202N10263 1974 64 EP MM NOT_NAMED 1974-07-21 18:00:00 NR 10.8140 -98.8903 main 592 577 O_________P___ jtwc_ep EP101974 10.8000 -98.9000 30 -1 10.8326 -98.8775 1 30 9 302
1974202N10263 1974 64 EP MM NOT_NAMED 1974-07-21 21:00:00 NR 11.0510 -99.2658 main 572 561 P_________P___ EP101974 11.0424 -99.2701 30 -1 11.0597 -99.2616 1 30 9 301
1974202N10263 1974 64 EP MM NOT_NAMED 1974-07-22 00:00:00 NR 11.3000 -99.7000 main 564 557 O_________O___ jtwc_ep EP101974 11.3000 -99.7000 30 -1 11.3000 -99.7000 1 30 11 298
1974202N10263 1974 64 EP MM NOT_NAMED 1974-07-22 03:00:00 NR 11.5525 -100.213 main 553 550 P_________P___ EP101974 11.5500 -100.220 30 -1 11.5550 -100.205 1 30 12 296
1974202N10263 1974 64 EP MM NOT_NAMED 1974-07-22 06:00:00 NR 11.8074 -100.784 main 556 547 O_________P___ jtwc_ep EP101974 11.8000 -100.800 30 -1 11.8149 -100.767 1 30 12 294
1974202N10263 1974 64 EP MM NOT_NAMED 1974-07-22 09:00:00 NR 12.0623 -101.374 main 546 543 P_________P___ EP101974 12.0573 -101.378 30 -1 12.0673 -101.371 1 30 13 292
1974202N10263 1974 64 EP MM NOT_NAMED 1974-07-22 12:00:00 NR 12.3000 -102.000 main 551 551 O_________O___ jtwc_ep EP101974 12.3000 -102.000 30 -1 12.3000 -102.000 1 30 14 289
1974202N10263 1974 64 EP MM NOT_NAMED 1974-07-22 15:00:00 NR 12.5039 -102.681 main 564 560 P_________P___ EP101974 12.5150 -102.700 30 -1 12.4928 -102.661 1 30 14 286
1974202N10263 1974 64 EP MM NOT_NAMED 1974-07-22 18:00:00 NR 12.6827 -103.369 main 571 571 O_________P___ jtwc_ep EP101974 12.7000 -103.400 30 -1 12.6655 -103.338 1 30 13 284
1974202N10263 1974 64 EP MM NOT_NAMED 1974-07-22 21:00:00 NR 12.8401 -104.017 main 592 588 P_________P___ EP101974 12.8499 -104.038 30 -1 12.8303 -103.996 1 30 12 285
1974202N10263 1974 64 EP MM NOT_NAMED 1974-07-23 00:00:00 NR 13.0000 -104.600 main 599 591 O_________O___ jtwc_ep EP101974 13.0000 -104.600 30 -1 13.0000 -104.600 1 30 11 289
1974202N10263 1974 64 EP MM NOT_NAMED 1974-07-23 03:00:00 NR 13.1921 -105.088 main 595 584 P_________P___ EP101974 13.1923 -105.073 30 -1 13.1919 -105.104 1 30 10 294
1974202N10263 1974 64 EP MM NOT_NAMED 1974-07-23 06:00:00 NR 13.3957 -105.526 main 588 582 O_________P___ jtwc_ep EP101974 13.4000 -105.500 30 -1 13.3914 -105.553 1 30 9 296
1974202N10263 1974 64 EP MM NOT_NAMED 1974-07-23 09:00:00 NR 13.5975 -105.959 main 590 585 P_________P___ EP101974 13.5999 -105.943 30 -1 13.5952 -105.976 1 30 9 295
1974202N10263 1974 64 EP MM NOT_NAMED 1974-07-23 12:00:00 NR 13.8000 -106.400 main 591 587 O_________O___ jtwc_ep EP101974 13.8000 -106.400 30 -1 13.8000 -106.400 1 30 10 294
1974202N10263 1974 64 EP MM NOT_NAMED 1974-07-23 15:00:00 NR 14.0041 -106.892 main 602 600 P_________P___ EP101974 14.0000 -106.900 30 -1 14.0081 -106.884 1 30 10 293
1974202N10263 1974 64 EP MM NOT_NAMED 1974-07-23 18:00:00 NR 14.2075 -107.386 main 619 618 O_________P___ jtwc_ep EP101974 14.2000 -107.400 30 -1 14.2150 -107.372 1 30 10 293
1974202N10263 1974 64 EP MM NOT_NAMED 1974-07-23 21:00:00 NR 14.4109 -107.861 main 630 626 P_________P___ EP101974 14.4074 -107.873 30 -1 14.4144 -107.850 1 30 10 294
1974202N10263 1974 64 EP MM NOT_NAMED 1974-07-24 00:00:00 NR 14.6000 -108.300 main 635 632 O_________O___ jtwc_ep EP101974 14.6000 -108.300 30 -1 14.6000 -108.300 1 30 9 294
1974202N10263 1974 64 EP MM NOT_NAMED 1974-07-24 03:00:00 NR 14.7647 -108.681 main 643 643 P_________P___ EP101974 14.7573 -108.658 30 -1 14.7721 -108.704 1 30 8 294
1974202N10263 1974 64 EP MM NOT_NAMED 1974-07-24 06:00:00 NR 14.9147 -109.040 main 656 655 O_________P___ jtwc_ep EP101974 14.9000 -109.000 30 -1 14.9294 -109.080 1 30 8 293
1974202N10263 1974 64 EP MM NOT_NAMED 1974-07-24 09:00:00 NR 15.0648 -109.421 main 670 670 P_________P___ EP101974 15.0575 -109.400 30 -1 15.0721 -109.441 1 30 8 291
1974202N10263 1974 64 EP MM NOT_NAMED 1974-07-24 12:00:00 NR 15.2000 -109.800 main 693 693 O_________O___ jtwc_ep EP101974 15.2000 -109.800 30 -1 15.2000 -109.800 1 30 8 288
1974202N10263 1974 64 EP MM NOT_NAMED 1974-07-24 15:00:00 NR 15.3006 -110.159 main 715 715 P_________P___ EP101974 15.3074 -110.150 30 -1 15.2938 -110.167 1 30 7 285
1974202N10263 1974 64 EP MM NOT_NAMED 1974-07-24 18:00:00 NR 15.3885 -110.518 main 731 731 O_________P___ jtwc_ep EP101974 15.4000 -110.500 30 -1 15.3771 -110.536 1 30 7 284
1974202N10263 1974 64 EP MM NOT_NAMED 1974-07-24 21:00:00 NR 15.4784 -110.902 main 757 757 P_________P___ EP101974 15.4850 -110.893 30 -1 15.4719 -110.911 1 30 8 286
1974202N10263 1974 64 EP MM NOT_NAMED 1974-07-25 00:00:00 NR 15.6000 -111.300 main 783 783 O_________O___ jtwc_ep EP101974 15.6000 -111.300 30 -1 15.6000 -111.300 1 30 8 292
1974202N10263 1974 64 EP MM NOT_NAMED 1974-07-25 03:00:00 NR 15.7912 -111.695 main 806 799 P_________P___ EP101974 15.7774 -111.693 30 -1 15.8050 -111.698 1 30 9 299
1974202N10263 1974 64 EP MM NOT_NAMED 1974-07-25 06:00:00 NR 16.0210 -112.106 main 802 783 O_________P___ jtwc_ep EP101974 16.0000 -112.100 30 -1 16.0421 -112.112 1 30 9 301
1974202N10263 1974 64 EP MM NOT_NAMED 1974-07-25 09:00:00 NR 16.2702 -112.540 main 783 777 P_________P___ EP101974 16.2574 -112.535 30 -1 16.2831 -112.545 1 30 10 299
1974202N10263 1974 64 EP MM NOT_NAMED 1974-07-25 12:00:00 NR 16.5000 -113.000 main 781 775 O_________O___ jtwc_ep EP101974 16.5000 -113.000 30 -1 16.5000 -113.000 1 30 10 294
1974202N10263 1974 64 EP MM NOT_NAMED 1974-07-25 15:00:00 NR 16.6720 -113.485 main 784 784 P_________P___ EP101974 16.6724 -113.493 30 -1 16.6716 -113.478 1 30 10 288
1974202N10263 1974 64 EP MM NOT_NAMED 1974-07-25 18:00:00 NR 16.8018 -113.988 main 800 800 O_________P___ jtwc_ep EP101974 16.8000 -114.000 30 -1 16.8036 -113.975 1 30 10 284
1974202N10263 1974 64 EP MM NOT_NAMED 1974-07-25 21:00:00 NR 16.9070 -114.493 main 819 819 P_________P___ EP101974 16.9052 -114.502 30 -1 16.9089 -114.484 1 30 10 282
1974202N10263 1974 64 EP MM NOT_NAMED 1974-07-26 00:00:00 NR 17.0000 -115.000 main 841 O_________O___ jtwc_ep EP101974 17.0000 -115.000 30 -1 17.0000 -115.000 1 30 10 281

About IBTrACS Database

This database is a web-friendly format of International Best Track Archive for Climate Stewardship (IBTrACS), a global best track data archive curated by NOAA dating back to 1842.

Updated: 2021-12-08